createdAt,value
2023-05-21T00:02:23.783Z,101391.13
2023-05-21T00:04:51.443Z,101389.44
2023-05-21T00:07:18.707Z,101389.44
2023-05-21T00:09:45.191Z,101396.19
2023-05-21T00:12:11.692Z,101398.19
2023-05-21T00:14:38.228Z,101391.75
2023-05-21T00:17:04.935Z,101386.25
2023-05-21T00:19:33.713Z,101385.63
2023-05-21T00:22:03.615Z,101382.69
2023-05-21T00:24:30.319Z,101378.75
2023-05-21T00:26:56.846Z,101381.59
2023-05-21T00:29:23.748Z,101380.94
2023-05-21T00:31:51.178Z,101369.13
2023-05-21T00:34:18.011Z,101367.09
2023-05-21T00:36:48.023Z,101371.50
2023-05-21T00:39:14.632Z,101366.59
2023-05-21T00:41:43.033Z,101373.16
2023-05-21T00:44:09.823Z,101378.59
2023-05-21T00:46:36.619Z,101372.63
2023-05-21T00:49:03.177Z,101370.88
2023-05-21T00:51:30.334Z,101370.78
2023-05-21T00:53:57.864Z,101367.97
2023-05-21T00:56:25.154Z,101363.13
2023-05-21T00:58:52.056Z,101364.88
2023-05-21T01:01:19.450Z,101356.41
2023-05-21T01:03:48.737Z,101359.50
2023-05-21T01:07:24.198Z,101351.09
2023-05-21T01:09:50.919Z,101348.53
2023-05-21T01:12:18.821Z,101348.72
2023-05-21T01:14:45.826Z,101342.94
2023-05-21T01:17:14.333Z,101347.69
2023-05-21T01:19:42.688Z,101349.72
2023-05-21T01:22:12.437Z,101347.72
2023-05-21T01:24:38.991Z,101348.00
2023-05-21T01:27:07.656Z,101350.19
2023-05-21T01:29:34.324Z,101338.41
2023-05-21T01:32:26.947Z,101342.91
2023-05-21T01:35:09.831Z,101340.44
2023-05-21T01:37:47.640Z,101340.44
2023-05-21T01:40:16.244Z,101336.69
2023-05-21T01:42:44.433Z,101342.41
2023-05-21T01:45:12.114Z,101334.25
2023-05-21T01:47:40.688Z,101341.25
2023-05-21T01:50:09.089Z,101333.63
2023-05-21T01:52:36.346Z,101335.53
2023-05-21T01:55:03.614Z,101344.25
2023-05-21T01:57:30.157Z,101336.06
2023-05-21T01:59:57.933Z,101328.72
2023-05-21T02:02:24.652Z,101324.97
2023-05-21T02:04:51.558Z,101330.88
2023-05-21T02:07:18.380Z,101327.97
2023-05-21T02:09:45.061Z,101326.44
2023-05-21T02:12:11.816Z,101327.47
2023-05-21T02:14:38.835Z,101327.81
2023-05-21T02:17:05.693Z,101327.59
2023-05-21T02:19:32.229Z,101321.34
2023-05-21T02:21:58.810Z,101315.34
2023-05-21T02:24:25.333Z,101321.31
2023-05-21T02:26:52.477Z,101319.16
2023-05-21T02:29:19.311Z,101311.91
2023-05-21T02:31:45.994Z,101312.94
2023-05-21T02:34:12.791Z,101324.03
2023-05-21T02:36:41.643Z,101311.97
2023-05-21T02:39:08.157Z,101317.34
2023-05-21T02:41:34.812Z,101317.00
2023-05-21T02:44:01.397Z,101312.81
2023-05-21T02:46:27.890Z,101306.69
2023-05-21T02:48:54.494Z,101314.09
2023-05-21T02:51:21.078Z,101308.28
2023-05-21T02:53:48.195Z,101305.22
2023-05-21T02:56:15.045Z,101308.22
2023-05-21T02:58:41.949Z,101299.13
2023-05-21T03:01:08.474Z,101304.91
2023-05-21T03:03:35.190Z,101306.44
2023-05-21T03:06:02.060Z,101303.75
2023-05-21T03:08:28.557Z,101302.88
2023-05-21T03:10:55.401Z,101302.50
2023-05-21T03:13:22.239Z,101298.31
2023-05-21T03:15:48.870Z,101296.44
2023-05-21T03:18:15.460Z,101300.06
2023-05-21T03:20:44.381Z,101294.50
2023-05-21T03:23:14.217Z,101296.00
2023-05-21T03:25:42.862Z,101303.06
2023-05-21T03:28:11.915Z,101296.75
2023-05-21T03:30:38.418Z,101300.69
2023-05-21T03:33:05.110Z,101302.03
2023-05-21T03:35:31.678Z,101302.25
2023-05-21T03:37:58.173Z,101298.16
2023-05-21T03:40:24.728Z,101289.97
2023-05-21T03:42:51.516Z,101301.75
2023-05-21T03:45:18.123Z,101302.22
2023-05-21T03:47:44.672Z,101301.41
2023-05-21T03:50:11.374Z,101299.13
2023-05-21T03:52:37.923Z,101299.13
2023-05-21T03:55:04.692Z,101306.41
2023-05-21T03:57:31.261Z,101307.19
2023-05-21T03:59:58.977Z,101299.38
2023-05-21T04:02:27.294Z,101308.72
2023-05-21T04:04:55.945Z,101307.75
2023-05-21T04:07:22.748Z,101308.94
2023-05-21T04:09:49.552Z,101311.75
2023-05-21T04:12:18.058Z,101305.22
2023-05-21T04:14:44.648Z,101307.75
2023-05-21T04:17:12.711Z,101308.88
2023-05-21T04:19:39.807Z,101311.34
2023-05-21T04:22:06.491Z,101309.44
2023-05-21T04:24:32.978Z,101323.56
2023-05-21T04:27:01.597Z,101319.53
2023-05-21T04:29:29.901Z,101319.19
2023-05-21T04:31:56.389Z,101321.91
2023-05-21T04:34:22.950Z,101318.41
2023-05-21T04:36:49.850Z,101319.97
2023-05-21T04:39:17.083Z,101325.22
2023-05-21T04:41:44.331Z,101322.31
2023-05-21T04:44:14.863Z,101324.69
2023-05-21T04:46:41.895Z,101326.38
2023-05-21T04:49:10.279Z,101326.84
2023-05-21T04:51:37.864Z,101322.22
2023-05-21T04:54:04.467Z,101321.72
2023-05-21T04:56:31.968Z,101317.66
2023-05-21T04:58:58.992Z,101321.03
2023-05-21T05:01:27.330Z,101324.44
2023-05-21T05:03:54.105Z,101317.06
2023-05-21T05:06:21.510Z,101319.09
2023-05-21T05:08:48.095Z,101322.28
2023-05-21T05:11:14.680Z,101329.72
2023-05-21T05:13:44.310Z,101325.25
2023-05-21T05:16:12.874Z,101328.22
2023-05-21T05:18:39.384Z,101321.91
2023-05-21T05:21:06.239Z,101317.31
2023-05-21T05:23:32.734Z,101322.25
2023-05-21T05:25:59.258Z,101320.88
2023-05-21T05:28:26.009Z,101323.22
2023-05-21T05:30:52.691Z,101328.31
2023-05-21T05:33:19.271Z,101324.06
2023-05-21T05:35:45.784Z,101319.53
2023-05-21T05:38:13.511Z,101325.59
2023-05-21T05:40:40.095Z,101318.84
2023-05-21T05:43:06.693Z,101319.03
2023-05-21T05:45:33.253Z,101319.84
2023-05-21T05:47:59.876Z,101326.97
2023-05-21T05:50:27.341Z,101318.34
2023-05-21T05:52:54.031Z,101322.72
2023-05-21T05:55:22.001Z,101315.44
2023-05-21T05:57:48.773Z,101327.75
2023-05-21T06:00:15.751Z,101324.56
2023-05-21T06:02:42.350Z,101318.13
2023-05-21T06:05:10.008Z,101321.84
2023-05-21T06:07:38.596Z,101321.34
2023-05-21T06:10:09.054Z,101312.72
2023-05-21T06:12:35.687Z,101317.47
2023-05-21T06:15:02.231Z,101309.03
2023-05-21T06:17:28.837Z,101308.47
2023-05-21T06:19:55.614Z,101316.38
2023-05-21T06:22:24.843Z,101316.19
2023-05-21T06:24:52.035Z,101309.94
2023-05-21T06:27:18.517Z,101318.63
2023-05-21T06:29:45.110Z,101314.47
2023-05-21T06:32:11.598Z,101308.16
2023-05-21T06:34:38.102Z,101313.00
2023-05-21T06:37:04.751Z,101310.28
2023-05-21T06:39:31.411Z,101312.81
2023-05-21T06:41:58.070Z,101306.00
2023-05-21T06:44:24.599Z,101307.31
2023-05-21T06:46:51.186Z,101308.75
2023-05-21T06:49:17.641Z,101308.44
2023-05-21T06:51:44.129Z,101309.59
2023-05-21T06:54:10.889Z,101305.63
2023-05-21T06:56:37.321Z,101313.56
2023-05-21T06:59:03.842Z,101307.22
2023-05-21T07:01:30.810Z,101308.28
2023-05-21T07:03:57.424Z,101306.53
2023-05-21T07:06:23.957Z,101309.84
2023-05-21T07:08:50.497Z,101305.34
2023-05-21T07:11:17.058Z,101311.53
2023-05-21T07:13:43.516Z,101306.19
2023-05-21T07:16:10.145Z,101303.03
2023-05-21T07:18:37.591Z,101309.41
2023-05-21T07:21:04.357Z,101300.75
2023-05-21T07:23:30.856Z,101304.16
2023-05-21T07:25:57.328Z,101302.31
2023-05-21T07:28:23.852Z,101306.38
2023-05-21T07:30:50.471Z,101299.38
2023-05-21T07:33:17.265Z,101309.78
2023-05-21T07:35:43.734Z,101303.59
2023-05-21T07:38:10.245Z,101313.50
2023-05-21T07:40:36.837Z,101303.91
2023-05-21T07:43:03.321Z,101305.28
2023-05-21T07:45:29.903Z,101301.94
2023-05-21T07:47:56.473Z,101300.78
2023-05-21T07:50:23.159Z,101306.53
2023-05-21T07:52:49.760Z,101294.78
2023-05-21T07:55:16.238Z,101302.13
2023-05-21T07:57:42.770Z,101286.41
2023-05-21T08:00:10.326Z,101289.13
2023-05-21T08:02:37.149Z,101284.75
2023-05-21T08:05:04.002Z,101288.94
2023-05-21T08:07:31.912Z,101289.78
2023-05-21T08:09:58.836Z,101291.03
2023-05-21T08:12:25.415Z,101282.63
2023-05-21T08:14:51.900Z,101288.09
2023-05-21T08:17:18.596Z,101291.47
2023-05-21T08:19:45.146Z,101287.22
2023-05-21T08:22:11.648Z,101284.63
2023-05-21T08:24:38.161Z,101286.47
2023-05-21T08:27:05.198Z,101278.69
2023-05-21T08:29:33.103Z,101279.69
2023-05-21T08:31:59.775Z,101285.19
2023-05-21T08:34:26.602Z,101276.47
2023-05-21T08:36:53.857Z,101278.59
2023-05-21T08:39:20.778Z,101275.88
2023-05-21T08:41:51.915Z,101283.47
2023-05-21T08:44:21.882Z,101276.75
2023-05-21T08:46:51.669Z,101278.09
2023-05-21T08:49:23.771Z,101280.44
2023-05-21T08:51:53.403Z,101279.34
2023-05-21T08:54:19.928Z,101272.16
2023-05-21T08:56:49.299Z,101274.06
2023-05-21T08:59:17.149Z,101274.78
2023-05-21T09:01:45.996Z,101272.31
2023-05-21T09:04:20.966Z,101272.00
2023-05-21T09:06:48.501Z,101264.31
2023-05-21T09:09:24.897Z,101276.44
2023-05-21T09:11:51.487Z,101273.88
2023-05-21T09:14:20.151Z,101270.84
2023-05-21T09:16:48.704Z,101269.75
2023-05-21T09:19:15.453Z,101278.81
2023-05-21T09:21:42.049Z,101273.72
2023-05-21T09:24:10.920Z,101272.34
2023-05-21T09:26:37.589Z,101271.34
2023-05-21T09:29:04.053Z,101263.59
2023-05-21T09:31:30.714Z,101255.78
2023-05-21T09:33:57.228Z,101264.16
2023-05-21T09:36:24.176Z,101255.53
2023-05-21T09:38:54.354Z,101254.50
2023-05-21T09:41:30.934Z,101250.94
2023-05-21T09:44:01.645Z,101245.47
2023-05-21T09:46:28.147Z,101248.13
2023-05-21T09:48:54.648Z,101242.84
2023-05-21T09:51:21.515Z,101235.75
2023-05-21T09:53:55.653Z,101246.41
2023-05-21T09:56:24.589Z,101249.03
2023-05-21T09:59:01.996Z,101242.06
2023-05-21T10:01:31.479Z,101239.81
2023-05-21T10:04:00.241Z,101242.94
2023-05-21T10:06:29.315Z,101235.88
2023-05-21T10:08:57.446Z,101223.78
2023-05-21T10:11:27.229Z,101226.34
2023-05-21T10:14:16.312Z,101218.09
2023-05-21T10:16:44.324Z,101216.28
2023-05-21T10:19:12.165Z,101213.19
2023-05-21T10:21:39.941Z,101208.19
2023-05-21T10:24:08.561Z,101201.66
2023-05-21T10:26:36.248Z,101206.47
2023-05-21T10:29:03.199Z,101196.59
2023-05-21T10:31:29.741Z,101190.50
2023-05-21T10:33:56.697Z,101199.72
2023-05-21T10:36:31.672Z,101195.75
2023-05-21T10:39:00.185Z,101196.03
2023-05-21T10:41:30.209Z,101184.75
2023-05-21T10:44:11.118Z,101183.50
2023-05-21T10:46:53.139Z,101178.63
2023-05-21T10:49:37.443Z,101189.69
2023-05-21T10:52:04.092Z,101176.41
2023-05-21T10:55:15.754Z,101177.97
2023-05-21T10:57:51.535Z,101184.81
2023-05-21T11:00:20.520Z,101187.19
2023-05-21T11:02:48.870Z,101191.00
2023-05-21T11:05:15.616Z,101180.59
2023-05-21T11:07:59.082Z,101181.25
2023-05-21T11:10:41.308Z,101179.03
2023-05-21T11:13:13.111Z,101178.72
2023-05-21T11:15:57.725Z,101183.78
2023-05-21T11:18:37.802Z,101180.47
2023-05-21T11:21:10.503Z,101178.75
2023-05-21T11:23:56.750Z,101170.56
2023-05-21T11:26:26.235Z,101173.22
2023-05-21T11:29:04.773Z,101181.84
2023-05-21T11:31:41.536Z,101179.56
2023-05-21T11:34:11.025Z,101174.50
2023-05-21T11:36:38.578Z,101171.75
2023-05-21T11:39:15.276Z,101165.47
2023-05-21T11:42:00.462Z,101160.56
2023-05-21T11:44:39.895Z,101170.09
2023-05-21T11:47:07.873Z,101169.19
2023-05-21T11:49:35.281Z,101170.25
2023-05-21T11:52:03.170Z,101168.06
2023-05-21T11:54:34.069Z,101170.84
2023-05-21T11:57:03.765Z,101172.09
2023-05-21T11:59:30.262Z,101164.06
2023-05-21T12:01:56.946Z,101159.50
2023-05-21T12:04:23.488Z,101161.03
2023-05-21T12:06:50.788Z,101159.16
2023-05-21T12:09:17.463Z,101157.03
2023-05-21T12:11:44.113Z,101157.56
2023-05-21T12:14:11.375Z,101162.16
2023-05-21T12:16:39.141Z,101155.19
2023-05-21T12:19:06.681Z,101162.69
2023-05-21T12:21:34.176Z,101166.53
2023-05-21T12:24:00.912Z,101154.13
2023-05-21T12:26:27.790Z,101164.75
2023-05-21T12:28:57.564Z,101158.94
2023-05-21T12:31:24.668Z,101159.25
2023-05-21T12:33:51.888Z,101164.03
2023-05-21T12:36:34.309Z,101158.22
2023-05-21T12:39:00.836Z,101149.41
2023-05-21T12:41:27.971Z,101161.28
2023-05-21T12:43:54.502Z,101156.19
2023-05-21T12:46:23.242Z,101157.25
2023-05-21T12:48:53.144Z,101147.00
2023-05-21T12:51:20.380Z,101142.88
2023-05-21T12:53:47.375Z,101147.56
2023-05-21T12:56:15.810Z,101145.28
2023-05-21T12:58:42.932Z,101143.88
2023-05-21T13:01:10.960Z,101152.50
2023-05-21T13:03:38.905Z,101146.84
2023-05-21T13:06:09.220Z,101150.75
2023-05-21T13:08:35.735Z,101145.22
2023-05-21T13:11:03.064Z,101134.09
2023-05-21T13:13:30.192Z,101142.28
2023-05-21T13:15:56.895Z,101135.25
2023-05-21T13:18:23.498Z,101133.69
2023-05-21T13:20:51.648Z,101139.22
2023-05-21T13:23:18.203Z,101129.44
2023-05-21T13:25:44.810Z,101134.97
2023-05-21T13:28:15.077Z,101126.75
2023-05-21T13:30:41.673Z,101138.78
2023-05-21T13:33:08.340Z,101133.19
2023-05-21T13:35:35.281Z,101125.22
2023-05-21T13:38:02.087Z,101123.63
2023-05-21T13:40:28.681Z,101114.00
2023-05-21T13:42:55.242Z,101101.66
2023-05-21T13:45:21.866Z,101120.56
2023-05-21T13:47:48.883Z,101127.34
2023-05-21T13:50:16.143Z,101119.38
2023-05-21T13:52:42.782Z,101119.13
2023-05-21T13:55:10.005Z,101109.50
2023-05-21T13:57:36.581Z,101109.81
2023-05-21T14:00:04.099Z,101103.91
2023-05-21T14:02:30.747Z,101096.47
2023-05-21T14:04:57.456Z,101104.69
2023-05-21T14:07:24.008Z,101109.38
2023-05-21T14:09:50.573Z,101105.78
2023-05-21T14:12:17.178Z,101106.47
2023-05-21T14:14:43.787Z,101105.91
2023-05-21T14:17:10.316Z,101109.59
2023-05-21T14:19:36.858Z,101100.50
2023-05-21T14:22:03.580Z,101100.88
2023-05-21T14:24:30.060Z,101104.47
2023-05-21T14:26:56.924Z,101110.66
2023-05-21T14:29:23.596Z,101103.78
2023-05-21T14:31:50.203Z,101112.44
2023-05-21T14:34:17.628Z,101110.44
2023-05-21T14:36:44.162Z,101116.97
2023-05-21T14:39:10.649Z,101124.28
2023-05-21T14:41:39.239Z,101108.13
2023-05-21T14:44:05.734Z,101113.66
2023-05-21T14:46:32.550Z,101117.69
2023-05-21T14:49:00.206Z,101116.03
2023-05-21T14:51:26.737Z,101110.69
2023-05-21T14:53:53.231Z,101115.78
2023-05-21T14:56:22.135Z,101114.38
2023-05-21T14:58:48.948Z,101117.34
2023-05-21T15:01:15.579Z,101111.75
2023-05-21T15:03:42.195Z,101113.78
2023-05-21T15:06:08.938Z,101106.00
2023-05-21T15:08:35.790Z,101106.97
2023-05-21T15:11:02.304Z,101105.75
2023-05-21T15:13:28.847Z,101098.13
2023-05-21T15:15:55.483Z,101106.59
2023-05-21T15:18:22.064Z,101106.63
2023-05-21T15:20:48.598Z,101101.75
2023-05-21T15:23:17.186Z,101101.25
2023-05-21T15:25:44.997Z,101102.44
2023-05-21T15:28:12.125Z,101099.69
2023-05-21T15:30:38.947Z,101092.56
2023-05-21T15:33:05.507Z,101101.13
2023-05-21T15:35:32.089Z,101096.84
2023-05-21T15:37:58.638Z,101094.09
2023-05-21T15:40:27.058Z,101096.50
2023-05-21T15:42:54.097Z,101097.88
2023-05-21T15:45:20.673Z,101097.56
2023-05-21T15:47:47.489Z,101091.22
2023-05-21T15:50:14.068Z,101094.75
2023-05-21T15:52:41.502Z,101101.59
2023-05-21T15:55:08.440Z,101094.88
2023-05-21T15:57:34.920Z,101094.81
2023-05-21T16:00:01.442Z,101097.69
2023-05-21T16:02:28.040Z,101088.50
2023-05-21T16:04:55.000Z,101087.66
2023-05-21T16:07:23.294Z,101092.06
2023-05-21T16:09:49.888Z,101089.09
2023-05-21T16:12:16.498Z,101094.69
2023-05-21T16:14:43.063Z,101090.75
2023-05-21T16:17:09.788Z,101081.56
2023-05-21T16:19:36.539Z,101088.06
2023-05-21T16:22:03.282Z,101083.06
2023-05-21T16:24:29.881Z,101070.47
2023-05-21T16:26:56.440Z,101078.06
2023-05-21T16:29:22.890Z,101078.25
2023-05-21T16:31:49.433Z,101075.63
2023-05-21T16:34:16.016Z,101088.84
2023-05-21T16:36:42.593Z,101075.31
2023-05-21T16:39:09.136Z,101069.75
2023-05-21T16:41:35.898Z,101074.34
2023-05-21T16:44:02.419Z,101079.13
2023-05-21T16:46:28.997Z,101082.72
2023-05-21T16:48:55.563Z,101085.44
2023-05-21T16:51:22.280Z,101078.25
2023-05-21T16:53:48.849Z,101069.19
2023-05-21T16:56:15.491Z,101074.75
2023-05-21T16:58:41.956Z,101092.75
2023-05-21T17:01:08.542Z,101088.56
2023-05-21T17:03:35.415Z,101095.53
2023-05-21T17:06:01.986Z,101088.66
2023-05-21T17:08:28.583Z,101081.69
2023-05-21T17:10:55.730Z,101094.91
2023-05-21T17:13:23.224Z,101090.72
2023-05-21T17:15:52.802Z,101090.28
2023-05-21T17:18:19.399Z,101097.66
2023-05-21T17:20:46.019Z,101096.19
2023-05-21T17:23:12.620Z,101101.88
2023-05-21T17:25:39.858Z,101088.44
2023-05-21T17:28:07.080Z,101096.56
2023-05-21T17:30:33.818Z,101085.19
2023-05-21T17:33:02.245Z,101097.66
2023-05-21T17:35:29.191Z,101085.28
2023-05-21T17:37:55.779Z,101086.03
2023-05-21T17:40:24.403Z,101087.94
2023-05-21T17:42:52.218Z,101075.25
2023-05-21T17:45:19.023Z,101085.09
2023-05-21T17:47:45.892Z,101084.53
2023-05-21T17:50:12.557Z,101089.16
2023-05-21T17:52:39.038Z,101096.16
2023-05-21T17:55:06.241Z,101098.97
2023-05-21T17:57:32.783Z,101096.59
2023-05-21T17:59:59.333Z,101098.88
2023-05-21T18:02:27.375Z,101099.50
2023-05-21T18:04:54.078Z,101107.53
2023-05-21T18:07:22.189Z,101099.50
2023-05-21T18:09:48.716Z,101107.91
2023-05-21T18:12:15.451Z,101108.44
2023-05-21T18:14:41.939Z,101107.13
2023-05-21T18:17:08.559Z,101110.56
2023-05-21T18:19:35.092Z,101114.28
2023-05-21T18:22:01.604Z,101120.75
2023-05-21T18:24:28.108Z,101111.41
2023-05-21T18:26:54.620Z,101105.63
2023-05-21T18:29:21.097Z,101116.47
2023-05-21T18:31:47.605Z,101113.06
2023-05-21T18:34:15.520Z,101112.59
2023-05-21T18:36:42.214Z,101119.31
2023-05-21T18:39:09.406Z,101113.31
2023-05-21T18:41:37.202Z,101122.22
2023-05-21T18:44:04.107Z,101124.28
2023-05-21T18:46:31.605Z,101119.56
2023-05-21T18:48:59.821Z,101116.47
2023-05-21T18:51:26.486Z,101126.72
2023-05-21T18:53:53.015Z,101119.66
2023-05-21T18:56:19.544Z,101121.31
2023-05-21T18:58:46.265Z,101118.78
2023-05-21T19:01:13.006Z,101121.78
2023-05-21T19:03:39.565Z,101125.66
2023-05-21T19:06:06.109Z,101129.63
2023-05-21T19:08:32.591Z,101133.66
2023-05-21T19:10:59.129Z,101138.19
2023-05-21T19:13:26.330Z,101136.97
2023-05-21T19:15:52.919Z,101139.97
2023-05-21T19:18:19.659Z,101140.59
2023-05-21T19:20:46.209Z,101150.81
2023-05-21T19:23:12.763Z,101151.84
2023-05-21T19:25:39.361Z,101150.56
2023-05-21T19:28:05.946Z,101159.06
2023-05-21T19:30:35.012Z,101163.75
2023-05-21T19:33:02.036Z,101162.25
2023-05-21T19:35:28.728Z,101163.16
2023-05-21T19:37:59.074Z,101164.78
2023-05-21T19:40:26.637Z,101170.31
2023-05-21T19:42:53.183Z,101170.06
2023-05-21T19:45:21.411Z,101165.25
2023-05-21T19:47:48.535Z,101162.34
2023-05-21T19:50:15.095Z,101157.94
2023-05-21T19:52:41.551Z,101164.88
2023-05-21T19:55:10.173Z,101170.31
2023-05-21T19:57:37.231Z,101170.31
2023-05-21T20:00:05.332Z,101170.94
2023-05-21T20:02:32.027Z,101170.31
2023-05-21T20:04:59.185Z,101172.03
2023-05-21T20:07:25.896Z,101165.34
2023-05-21T20:09:52.443Z,101166.16
2023-05-21T20:12:19.253Z,101163.84
2023-05-21T20:14:47.435Z,101172.03
2023-05-21T20:17:14.712Z,101170.75
2023-05-21T20:19:41.370Z,101165.66
2023-05-21T20:22:07.951Z,101170.16
2023-05-21T20:24:34.493Z,101175.41
2023-05-21T20:27:01.772Z,101174.56
2023-05-21T20:29:28.839Z,101174.53
2023-05-21T20:31:55.463Z,101174.97
2023-05-21T20:34:22.169Z,101169.53
2023-05-21T20:36:48.666Z,101175.22
2023-05-21T20:39:15.615Z,101170.81
2023-05-21T20:41:44.745Z,101175.41
2023-05-21T20:44:11.912Z,101186.72
2023-05-21T20:46:38.975Z,101169.97
2023-05-21T20:49:06.048Z,101177.91
2023-05-21T20:51:33.071Z,101179.00
2023-05-21T20:53:59.633Z,101172.69
2023-05-21T20:56:40.790Z,101182.56
2023-05-21T20:59:10.894Z,101180.44
2023-05-21T21:01:38.582Z,101181.72
2023-05-21T21:04:05.368Z,101177.50
2023-05-21T21:06:32.055Z,101179.59
2023-05-21T21:08:58.744Z,101179.56
2023-05-21T21:11:26.616Z,101187.09
2023-05-21T21:13:53.175Z,101186.66
2023-05-21T21:16:19.736Z,101191.25
2023-05-21T21:18:47.009Z,101191.25
2023-05-21T21:21:13.810Z,101186.22
2023-05-21T21:23:40.535Z,101195.41
2023-05-21T21:26:07.187Z,101200.28
2023-05-21T21:28:33.937Z,101198.78
2023-05-21T21:31:00.615Z,101193.16
2023-05-21T21:33:28.408Z,101195.59
2023-05-21T21:35:55.203Z,101200.75
2023-05-21T21:38:21.839Z,101201.72
2023-05-21T21:40:48.417Z,101204.81
2023-05-21T21:43:14.951Z,101198.34
2023-05-21T21:45:41.610Z,101196.84
2023-05-21T21:48:08.216Z,101195.31
2023-05-21T21:50:34.792Z,101196.84
2023-05-21T21:53:03.553Z,101194.28
2023-05-21T21:55:30.326Z,101201.50
2023-05-21T21:57:56.909Z,101192.41
2023-05-21T22:00:26.683Z,101192.19
2023-05-21T22:05:20.276Z,101188.63
2023-05-21T22:07:46.950Z,101195.81
2023-05-21T22:10:15.302Z,101195.25
2023-05-21T22:12:42.441Z,101193.69
2023-05-21T22:15:18.165Z,101195.56
2023-05-21T22:17:45.053Z,101197.69
2023-05-21T22:20:11.626Z,101190.09
2023-05-21T22:22:38.134Z,101196.25
2023-05-21T22:25:04.987Z,101199.66
2023-05-21T22:27:31.426Z,101190.81
2023-05-21T22:29:57.973Z,101185.41
2023-05-21T22:32:24.489Z,101202.13
2023-05-21T22:34:50.986Z,101193.63
2023-05-21T22:37:17.877Z,101191.50
2023-05-21T22:39:44.766Z,101194.06
2023-05-21T22:42:11.405Z,101194.78
2023-05-21T22:44:38.008Z,101193.22
2023-05-21T22:47:04.809Z,101191.94
2023-05-21T22:49:32.673Z,101204.81
2023-05-21T22:52:05.624Z,101189.66
2023-05-21T22:54:32.772Z,101199.88
2023-05-21T22:57:01.067Z,101197.00
2023-05-21T22:59:32.162Z,101195.69
2023-05-21T23:01:59.306Z,101195.63
2023-05-21T23:04:42.819Z,101195.41
2023-05-21T23:07:10.766Z,101185.47
2023-05-21T23:09:37.238Z,101188.44
2023-05-21T23:12:04.195Z,101190.41
2023-05-21T23:14:30.822Z,101191.75
2023-05-21T23:17:01.656Z,101202.38
2023-05-21T23:19:29.238Z,101196.72
2023-05-21T23:21:56.169Z,101195.84
2023-05-21T23:24:22.814Z,101192.56
2023-05-21T23:26:49.465Z,101195.00
2023-05-21T23:29:16.017Z,101189.75
2023-05-21T23:31:42.768Z,101196.81
2023-05-21T23:34:09.582Z,101192.69
2023-05-21T23:36:36.182Z,101185.69
2023-05-21T23:39:02.798Z,101182.16
2023-05-21T23:41:29.532Z,101172.50
2023-05-21T23:43:56.008Z,101169.28
2023-05-21T23:46:23.047Z,101171.22
2023-05-21T23:48:49.865Z,101170.50
2023-05-21T23:51:18.286Z,101169.03
2023-05-21T23:53:45.393Z,101169.88
2023-05-21T23:56:11.917Z,101172.81
2023-05-21T23:58:38.387Z,101171.81
